Decoded Metar for KTVF (THIEF RIVER in MN, USA) (IATA:TVF) | Meteo·Mobile Aviation Weather
aviador You're here:

KTVF Decoded Metar

THIEF RIVER in MN, USA
Report Time2020-02-22 20:56:00
UTC Time2020-02-22 21:37:28
Flight Rules vfr VFR
Wind200° at 06 kt
W.Decomp.*RWY 21: 5.8 kt HW 1.6 kt LCW
RWY 13: 2.5 kt HW 5.4 kt RCW
Visibility9999 m
Phenomena:N/A
Clouds:N/A
Expected CloudBase > 2,800 ft AGL from Temp-Dew spread
CeilingNone
Temp01°C (ISA -12)
Dew Point-6°C (60% RH)
AAT-3.9°C
QNH1008 hPa
Density Alt-89 ft
Elevation1,115 ft
Report Wrong Elevation
Raw Report
KTVF 222056Z AUTO 20006KT 10SM CLR 01/M06 A2977 RMK AO2 SLP099
T00061056 56015 FZRANO=

Extra information for KTVF:More info

Metar Taf Metar & Taf Last 4 Metars F.Rules Stats Wind Profile Meteogram Temp Stats Airport Information Weather charts Add Link Nearby VenuesMetar ALERT Operation Metar Decoded Social comments

AIRNAV info for KTVF